createdAt,value
2018-12-17T00:00:50.929Z,83.47
2018-12-17T00:03:18.909Z,86.17
2018-12-17T00:05:46.968Z,89.50
2018-12-17T00:08:15.471Z,89.67
2018-12-17T00:10:43.882Z,74.53
2018-12-17T00:13:11.707Z,83.47
2018-12-17T00:15:39.269Z,85.20
2018-12-17T00:18:07.031Z,93.40
2018-12-17T00:20:35.197Z,87.50
2018-12-17T00:23:02.858Z,89.33
2018-12-17T00:25:30.977Z,97.70
2018-12-17T00:27:59.054Z,107.37
2018-12-17T00:30:29.283Z,97.20
2018-12-17T00:32:57.376Z,101.07
2018-12-17T00:35:24.874Z,113.10
2018-12-17T00:37:52.338Z,101.83
2018-12-17T00:40:19.931Z,92.50
2018-12-17T00:42:47.421Z,103.83
2018-12-17T00:45:14.877Z,98.70
2018-12-17T00:47:42.363Z,103.33
2018-12-17T00:50:09.929Z,97.10
2018-12-17T00:52:37.485Z,113.07
2018-12-17T00:55:05.572Z,101.87
2018-12-17T00:57:33.162Z,103.33
2018-12-17T01:00:00.919Z,98.30
2018-12-17T01:02:29.475Z,105.60
2018-12-17T01:04:57.134Z,99.80
2018-12-17T01:07:26.886Z,97.37
2018-12-17T01:09:54.441Z,89.00
2018-12-17T01:12:21.869Z,105.47
2018-12-17T01:14:49.345Z,100.93
2018-12-17T01:17:16.927Z,102.83
2018-12-17T01:19:44.424Z,95.40
2018-12-17T01:22:12.089Z,102.43
2018-12-17T01:24:39.983Z,100.57
2018-12-17T01:27:07.855Z,102.83
2018-12-17T01:29:36.355Z,92.97
2018-12-17T01:32:04.133Z,99.23
2018-12-17T01:34:33.843Z,105.77
2018-12-17T01:37:01.413Z,89.73
2018-12-17T01:39:28.950Z,95.87
2018-12-17T01:41:56.806Z,96.53
2018-12-17T01:44:24.300Z,97.17
2018-12-17T01:46:51.741Z,104.37
2018-12-17T01:49:19.328Z,97.80
2018-12-17T01:51:48.233Z,100.37
2018-12-17T01:54:17.349Z,95.13
2018-12-17T01:56:45.034Z,91.37
2018-12-17T01:59:12.679Z,97.73
2018-12-17T02:01:40.502Z,102.17
2018-12-17T02:04:09.208Z,101.43
2018-12-17T02:06:37.211Z,110.97
2018-12-17T02:09:06.493Z,94.10
2018-12-17T02:11:34.371Z,95.20
2018-12-17T02:14:02.337Z,109.07
2018-12-17T02:16:29.896Z,101.47
2018-12-17T02:18:58.032Z,108.70
2018-12-17T02:21:25.760Z,108.63
2018-12-17T02:23:53.477Z,109.10
2018-12-17T02:26:21.099Z,97.47
2018-12-17T02:28:48.611Z,106.73
2018-12-17T02:31:16.415Z,91.87
2018-12-17T02:33:43.948Z,108.47
2018-12-17T02:36:11.808Z,100.90
2018-12-17T02:38:39.550Z,97.90
2018-12-17T02:41:07.130Z,104.17
2018-12-17T02:43:34.670Z,98.83
2018-12-17T02:46:02.306Z,107.73
2018-12-17T02:48:29.855Z,104.87
2018-12-17T02:50:57.546Z,94.73
2018-12-17T02:53:25.169Z,105.30
2018-12-17T02:55:52.812Z,103.80
2018-12-17T02:58:21.173Z,100.17
2018-12-17T03:00:49.027Z,101.13
2018-12-17T03:03:17.387Z,98.73
2018-12-17T03:05:45.131Z,107.97
2018-12-17T03:08:12.714Z,89.80
2018-12-17T03:10:40.448Z,100.80
2018-12-17T03:13:08.484Z,96.80
2018-12-17T03:15:36.142Z,84.93
2018-12-17T03:18:03.834Z,89.63
2018-12-17T03:20:31.493Z,92.57
2018-12-17T03:22:59.967Z,87.77
2018-12-17T03:25:27.660Z,86.73
2018-12-17T03:27:55.251Z,89.53
2018-12-17T03:30:22.841Z,84.97
2018-12-17T03:32:50.491Z,92.20
2018-12-17T03:35:18.404Z,90.40
2018-12-17T03:37:46.141Z,103.33
2018-12-17T03:40:13.784Z,101.13
2018-12-17T03:42:41.623Z,94.17
2018-12-17T03:45:09.648Z,109.90
2018-12-17T03:47:38.256Z,108.63
2018-12-17T03:50:06.000Z,107.10
2018-12-17T03:52:33.564Z,93.57
2018-12-17T03:55:01.114Z,99.77
2018-12-17T03:57:28.894Z,116.73
2018-12-17T03:59:57.480Z,129.63
2018-12-17T04:02:25.436Z,126.70
2018-12-17T04:04:53.161Z,118.30
2018-12-17T04:07:21.036Z,128.13
2018-12-17T04:09:48.869Z,119.37
2018-12-17T04:12:16.415Z,121.97
2018-12-17T04:14:44.150Z,113.00
2018-12-17T04:17:11.676Z,117.60
2018-12-17T04:19:39.344Z,110.63
2018-12-17T04:22:06.947Z,115.10
2018-12-17T04:24:35.096Z,112.30
2018-12-17T04:27:02.783Z,118.13
2018-12-17T04:29:30.357Z,115.17
2018-12-17T04:31:57.922Z,103.50
2018-12-17T04:34:25.387Z,113.00
2018-12-17T04:36:52.927Z,102.90
2018-12-17T04:39:20.628Z,106.53
2018-12-17T04:41:48.201Z,101.17
2018-12-17T04:44:15.825Z,113.93
2018-12-17T04:46:43.317Z,114.10
2018-12-17T04:49:10.741Z,118.83
2018-12-17T04:51:40.494Z,114.97
2018-12-17T04:54:08.008Z,120.83
2018-12-17T04:56:35.529Z,157.43
2018-12-17T04:59:03.006Z,124.87
2018-12-17T05:01:30.626Z,123.07
2018-12-17T05:03:58.136Z,130.37
2018-12-17T05:06:25.585Z,125.37
2018-12-17T05:08:53.339Z,135.47
2018-12-17T05:11:20.963Z,125.20
2018-12-17T05:13:49.063Z,125.37
2018-12-17T05:16:16.682Z,127.87
2018-12-17T05:18:44.219Z,132.40
2018-12-17T05:21:11.815Z,122.60
2018-12-17T05:23:39.414Z,119.43
2018-12-17T05:26:07.049Z,115.27
2018-12-17T05:28:34.617Z,121.27
2018-12-17T05:31:02.373Z,121.33
2018-12-17T05:33:30.232Z,129.60
2018-12-17T05:35:57.882Z,119.47
2018-12-17T05:38:25.397Z,124.67
2018-12-17T05:40:53.049Z,129.13
2018-12-17T05:43:20.524Z,119.87
2018-12-17T05:45:47.986Z,125.47
2018-12-17T05:48:15.599Z,139.90
2018-12-17T05:50:44.310Z,133.33
2018-12-17T05:53:11.827Z,114.40
2018-12-17T05:55:39.380Z,102.60
2018-12-17T05:58:06.857Z,105.37
2018-12-17T06:00:34.554Z,104.53
2018-12-17T06:03:02.085Z,117.17
2018-12-17T06:05:29.533Z,117.27
2018-12-17T06:07:57.233Z,135.23
2018-12-17T06:10:24.776Z,128.37
2018-12-17T06:12:52.274Z,120.87
2018-12-17T06:15:19.969Z,107.80
2018-12-17T06:17:47.477Z,130.77
2018-12-17T06:20:14.947Z,120.00
2018-12-17T06:22:42.403Z,134.00
2018-12-17T06:25:09.872Z,130.37
2018-12-17T06:27:38.641Z,135.90
2018-12-17T06:30:06.381Z,122.23
2018-12-17T06:32:34.399Z,124.20
2018-12-17T06:35:01.941Z,129.13
2018-12-17T06:37:29.409Z,118.93
2018-12-17T06:39:56.851Z,133.37
2018-12-17T06:42:25.005Z,134.97
2018-12-17T06:44:52.686Z,129.60
2018-12-17T06:47:20.201Z,132.77
2018-12-17T06:49:47.660Z,125.47
2018-12-17T06:52:15.130Z,118.33
2018-12-17T06:54:42.580Z,124.57
2018-12-17T06:57:10.021Z,119.83
2018-12-17T06:59:42.686Z,111.27
2018-12-17T07:02:07.289Z,119.83
2018-12-17T07:04:34.729Z,101.57
2018-12-17T07:07:02.152Z,102.03
2018-12-17T07:09:29.636Z,95.67
2018-12-17T07:11:57.194Z,94.20
2018-12-17T07:14:24.617Z,93.57
2018-12-17T07:16:52.061Z,85.03
2018-12-17T07:19:19.523Z,84.17
2018-12-17T07:21:46.992Z,89.47
2018-12-17T07:24:14.462Z,93.07
2018-12-17T07:26:42.008Z,82.53
2018-12-17T07:29:09.849Z,78.87
2018-12-17T07:31:37.556Z,81.27
2018-12-17T07:34:05.043Z,96.03
2018-12-17T07:36:32.613Z,93.90
2018-12-17T07:39:00.086Z,84.73
2018-12-17T07:41:27.829Z,91.33
2018-12-17T07:43:55.455Z,94.50
2018-12-17T07:46:23.193Z,96.53
2018-12-17T07:48:50.902Z,108.47
2018-12-17T07:51:19.045Z,100.17
2018-12-17T07:53:46.721Z,85.63
2018-12-17T07:56:14.230Z,105.83
2018-12-17T07:58:41.812Z,124.70
2018-12-17T08:01:09.445Z,157.33
2018-12-17T08:03:37.213Z,145.63
2018-12-17T08:06:06.128Z,129.43
2018-12-17T08:08:35.613Z,172.87
2018-12-17T08:11:03.383Z,120.47
2018-12-17T08:13:30.992Z,157.23
2018-12-17T08:15:58.690Z,122.73
2018-12-17T08:18:26.413Z,199.07
2018-12-17T08:20:54.083Z,147.83
2018-12-17T08:23:21.777Z,180.57
2018-12-17T08:25:49.312Z,197.87
2018-12-17T08:28:16.859Z,184.50
2018-12-17T08:30:44.487Z,159.90
2018-12-17T08:33:12.228Z,128.47
2018-12-17T08:35:40.217Z,193.03
2018-12-17T08:38:08.638Z,187.13
2018-12-17T08:40:36.187Z,132.93
2018-12-17T08:43:03.800Z,164.90
2018-12-17T08:45:31.460Z,179.10
2018-12-17T08:47:58.910Z,153.55
2018-12-17T08:50:26.348Z,104.00
2018-12-17T08:52:55.069Z,124.33
2018-12-17T08:55:22.485Z,99.70
2018-12-17T08:57:49.890Z,82.23
2018-12-17T09:00:17.341Z,83.93
2018-12-17T09:02:44.813Z,72.37
2018-12-17T09:05:12.249Z,77.00
2018-12-17T09:07:39.672Z,69.87
2018-12-17T09:10:07.241Z,67.47
2018-12-17T09:12:34.657Z,74.43
2018-12-17T09:15:02.232Z,61.60
2018-12-17T09:17:30.442Z,74.00
2018-12-17T09:19:57.913Z,72.57
2018-12-17T09:22:25.353Z,66.40
2018-12-17T09:24:52.789Z,60.13
2018-12-17T09:27:20.209Z,62.03
2018-12-17T09:29:47.618Z,56.63
2018-12-17T09:32:15.045Z,60.70
2018-12-17T09:34:42.517Z,56.87
2018-12-17T09:37:09.924Z,60.37
2018-12-17T09:39:37.341Z,57.20
2018-12-17T09:42:04.793Z,63.03
2018-12-17T09:44:32.201Z,51.33
2018-12-17T09:46:59.697Z,52.27
2018-12-17T09:49:27.807Z,52.90
2018-12-17T09:51:58.394Z,40.23
2018-12-17T09:54:25.789Z,46.30
2018-12-17T09:56:53.211Z,42.90
2018-12-17T09:59:20.714Z,44.50
2018-12-17T10:01:50.063Z,36.63
2018-12-17T10:04:17.588Z,43.43
2018-12-17T10:06:45.033Z,42.67
2018-12-17T10:09:12.448Z,37.60
2018-12-17T10:11:39.898Z,36.87
2018-12-17T10:14:07.350Z,37.10
2018-12-17T10:16:34.773Z,32.80
2018-12-17T10:19:02.182Z,31.07
2018-12-17T10:21:29.770Z,34.43
2018-12-17T10:23:57.181Z,33.87
2018-12-17T10:26:24.701Z,36.97
2018-12-17T10:28:52.242Z,37.30
2018-12-17T10:31:19.703Z,35.23
2018-12-17T10:33:47.185Z,32.23
2018-12-17T10:36:14.622Z,32.47
2018-12-17T10:38:42.105Z,31.50
2018-12-17T10:41:09.841Z,35.90
2018-12-17T10:43:37.274Z,33.23
2018-12-17T10:46:04.724Z,30.83
2018-12-17T10:48:32.137Z,28.53
2018-12-17T10:50:59.620Z,31.27
2018-12-17T10:53:27.202Z,33.87
2018-12-17T10:55:54.633Z,32.37
2018-12-17T10:58:22.129Z,30.50
2018-12-17T11:00:55.310Z,33.30
2018-12-17T11:03:24.653Z,34.30
2018-12-17T11:05:53.389Z,30.50
2018-12-17T11:08:20.861Z,30.93
2018-12-17T11:10:48.281Z,30.87
2018-12-17T11:13:15.701Z,32.73
2018-12-17T11:15:43.108Z,33.03
2018-12-17T11:18:10.555Z,26.73
2018-12-17T11:20:37.965Z,22.13
2018-12-17T11:23:06.014Z,29.03
2018-12-17T11:25:33.437Z,24.93
2018-12-17T11:28:00.921Z,24.93
2018-12-17T11:30:28.405Z,24.20
2018-12-17T11:32:55.826Z,26.23
2018-12-17T11:35:23.234Z,24.27
2018-12-17T11:37:50.737Z,27.87
2018-12-17T11:40:18.152Z,25.03
2018-12-17T11:42:45.565Z,25.33
2018-12-17T11:45:13.023Z,24.03
2018-12-17T11:47:40.500Z,27.20
2018-12-17T11:50:08.057Z,24.43
2018-12-17T11:52:36.008Z,28.70
2018-12-17T11:55:03.702Z,18.07
2018-12-17T11:57:36.972Z,23.63
2018-12-17T12:00:06.066Z,25.57
2018-12-17T12:02:33.573Z,20.73
2018-12-17T12:05:01.089Z,26.27
2018-12-17T12:07:28.575Z,27.00
2018-12-17T12:09:56.676Z,26.20
2018-12-17T12:12:24.177Z,19.70
2018-12-17T12:14:51.610Z,23.23
2018-12-17T12:17:19.192Z,24.50
2018-12-17T12:19:46.651Z,22.10
2018-12-17T12:22:14.158Z,21.87
2018-12-17T12:24:41.565Z,22.63
2018-12-17T12:27:09.032Z,22.70
2018-12-17T12:29:36.481Z,21.33
2018-12-17T12:32:04.392Z,24.13
2018-12-17T12:34:31.833Z,21.83
2018-12-17T12:36:59.265Z,25.33
2018-12-17T12:39:26.682Z,22.20
2018-12-17T12:41:54.111Z,28.47
2018-12-17T12:44:21.522Z,29.10
2018-12-17T12:46:48.949Z,24.57
2018-12-17T12:49:16.405Z,23.17
2018-12-17T12:51:43.850Z,29.90
2018-12-17T12:54:11.378Z,30.87
2018-12-17T12:56:38.816Z,27.10
2018-12-17T12:59:06.262Z,27.60
2018-12-17T13:01:33.714Z,25.53
2018-12-17T13:04:01.233Z,28.20
2018-12-17T13:06:28.676Z,25.20
2018-12-17T13:08:56.137Z,26.37
2018-12-17T13:11:23.661Z,20.50
2018-12-17T13:13:51.150Z,35.50
2018-12-17T13:16:18.549Z,26.33
2018-12-17T13:18:45.966Z,28.80
2018-12-17T13:21:13.525Z,27.43
2018-12-17T13:23:41.001Z,29.73
2018-12-17T13:26:08.556Z,31.27
2018-12-17T13:28:36.003Z,27.37
2018-12-17T13:31:03.446Z,28.67
2018-12-17T13:33:30.883Z,25.67
2018-12-17T13:35:58.384Z,23.80
2018-12-17T13:38:25.811Z,23.00
2018-12-17T13:40:53.265Z,26.73
2018-12-17T13:43:20.781Z,29.97
2018-12-17T13:45:48.165Z,24.77
2018-12-17T13:48:15.581Z,28.03
2018-12-17T13:50:43.118Z,26.53
2018-12-17T13:53:16.517Z,25.43
2018-12-17T13:55:44.097Z,26.00
2018-12-17T13:58:11.978Z,27.03
2018-12-17T14:00:39.478Z,27.03
2018-12-17T14:03:06.897Z,23.33
2018-12-17T14:05:34.488Z,29.87
2018-12-17T14:08:01.935Z,23.53
2018-12-17T14:10:35.137Z,25.20
2018-12-17T14:13:02.632Z,27.73
2018-12-17T14:15:32.045Z,27.10
2018-12-17T14:18:01.385Z,26.93
2018-12-17T14:20:34.673Z,29.73
2018-12-17T14:23:02.093Z,26.73
2018-12-17T14:25:29.713Z,28.37
2018-12-17T14:27:57.133Z,25.90
2018-12-17T14:30:25.609Z,29.23
2018-12-17T14:32:53.042Z,47.70
2018-12-17T14:35:20.487Z,27.83
2018-12-17T14:37:53.857Z,26.40
2018-12-17T14:40:21.327Z,25.00
2018-12-17T14:42:48.751Z,25.13
2018-12-17T14:45:16.237Z,25.30
2018-12-17T14:47:43.682Z,24.93
2018-12-17T14:50:11.100Z,21.93
2018-12-17T14:52:38.590Z,26.33
2018-12-17T14:55:06.416Z,26.17
2018-12-17T14:57:33.907Z,24.50
2018-12-17T15:00:01.588Z,25.33
2018-12-17T15:02:29.466Z,21.67
2018-12-17T15:04:56.904Z,29.10
2018-12-17T15:07:24.302Z,27.30
2018-12-17T15:09:51.708Z,28.00
2018-12-17T15:12:19.210Z,27.37
2018-12-17T15:17:32.725Z,25.57
2018-12-17T15:20:00.244Z,28.33
2018-12-17T15:22:27.748Z,28.80
2018-12-17T15:24:55.176Z,29.13
2018-12-17T15:27:22.662Z,27.10
2018-12-17T15:29:50.176Z,28.90
2018-12-17T15:32:17.602Z,27.10
2018-12-17T15:34:45.097Z,26.20
2018-12-17T15:37:12.523Z,30.83
2018-12-17T15:39:41.285Z,27.93
2018-12-17T15:42:08.705Z,29.13
2018-12-17T15:44:36.122Z,26.43
2018-12-17T15:47:03.669Z,24.13
2018-12-17T15:49:31.106Z,25.97
2018-12-17T15:51:58.600Z,27.83
2018-12-17T15:54:26.021Z,26.47
2018-12-17T15:56:53.438Z,24.50
2018-12-17T15:59:20.969Z,24.83
2018-12-17T16:01:50.232Z,22.33
2018-12-17T16:04:17.803Z,25.40
2018-12-17T16:06:45.276Z,26.33
2018-12-17T16:09:12.700Z,24.00
2018-12-17T16:11:40.113Z,19.53
2018-12-17T16:14:07.594Z,25.53
2018-12-17T16:16:35.088Z,22.83
2018-12-17T16:19:02.537Z,20.20
2018-12-17T16:21:29.949Z,23.67
2018-12-17T16:23:57.381Z,22.05
2018-12-17T16:26:24.805Z,19.33
2018-12-17T16:28:52.287Z,19.13
2018-12-17T16:31:19.720Z,19.37
2018-12-17T16:33:47.177Z,22.63
2018-12-17T16:36:14.586Z,21.53
2018-12-17T16:38:42.033Z,24.00
2018-12-17T16:41:09.517Z,23.77
2018-12-17T16:43:36.995Z,20.90
2018-12-17T16:46:04.405Z,19.93
2018-12-17T16:48:31.846Z,22.87
2018-12-17T16:50:59.302Z,20.53
2018-12-17T16:53:26.741Z,23.27
2018-12-17T16:55:54.158Z,19.13
2018-12-17T16:58:21.568Z,22.13
2018-12-17T17:00:49.005Z,22.87
2018-12-17T17:03:16.421Z,26.07
2018-12-17T17:05:43.841Z,25.30
2018-12-17T17:08:12.265Z,23.30
2018-12-17T17:10:39.721Z,27.17
2018-12-17T17:13:07.126Z,28.80
2018-12-17T17:15:34.605Z,26.57
2018-12-17T17:18:02.119Z,24.97
2018-12-17T17:20:29.609Z,26.30
2018-12-17T17:22:57.081Z,26.97
2018-12-17T17:25:24.507Z,21.23
2018-12-17T17:27:51.923Z,31.50
2018-12-17T17:30:19.421Z,26.20
2018-12-17T17:32:46.937Z,24.40
2018-12-17T17:35:14.371Z,24.17
2018-12-17T17:37:41.853Z,24.80
2018-12-17T17:40:09.378Z,24.30
2018-12-17T17:42:36.793Z,23.07
2018-12-17T17:45:04.434Z,23.53
2018-12-17T17:47:31.950Z,20.80
2018-12-17T17:49:59.361Z,18.83
2018-12-17T17:52:26.800Z,22.47
2018-12-17T17:54:54.242Z,17.87
2018-12-17T17:57:21.657Z,23.53
2018-12-17T17:59:49.132Z,21.27
2018-12-17T18:02:18.945Z,23.50
2018-12-17T18:04:45.997Z,21.87
2018-12-17T18:07:13.526Z,21.80
2018-12-17T18:09:40.937Z,23.83
2018-12-17T18:12:08.440Z,18.27
2018-12-17T18:14:36.027Z,24.80
2018-12-17T18:17:03.429Z,23.90
2018-12-17T18:19:30.841Z,21.97
2018-12-17T18:21:58.337Z,25.67
2018-12-17T18:24:25.745Z,27.20
2018-12-17T18:26:53.201Z,24.23
2018-12-17T18:29:20.617Z,19.53
2018-12-17T18:31:48.028Z,23.37
2018-12-17T18:34:15.482Z,23.83
2018-12-17T18:36:42.889Z,23.80
2018-12-17T18:39:10.629Z,20.50
2018-12-17T18:41:38.058Z,22.00
2018-12-17T18:44:05.508Z,22.43
2018-12-17T18:46:32.975Z,22.33
2018-12-17T18:49:00.493Z,22.43
2018-12-17T18:51:31.536Z,23.40
2018-12-17T18:53:58.929Z,21.90
2018-12-17T18:56:26.345Z,20.90
2018-12-17T18:58:53.768Z,29.00
2018-12-17T19:01:21.257Z,25.03
2018-12-17T19:03:48.669Z,21.40
2018-12-17T19:06:16.997Z,25.67
2018-12-17T19:08:44.508Z,23.13
2018-12-17T19:11:11.925Z,25.87
2018-12-17T19:13:39.373Z,23.90
2018-12-17T19:16:06.791Z,22.97
2018-12-17T19:18:34.328Z,26.23
2018-12-17T19:21:01.846Z,31.63
2018-12-17T19:23:29.325Z,23.93
2018-12-17T19:25:56.745Z,32.03
2018-12-17T19:28:24.237Z,27.93
2018-12-17T19:30:51.677Z,29.70
2018-12-17T19:33:19.126Z,24.47
2018-12-17T19:35:46.605Z,30.67
2018-12-17T19:38:14.025Z,31.13
2018-12-17T19:40:41.522Z,26.37
2018-12-17T19:43:09.873Z,33.17
2018-12-17T19:45:37.309Z,32.67
2018-12-17T19:48:04.821Z,32.83
2018-12-17T19:50:32.255Z,29.83
2018-12-17T19:52:59.669Z,32.67
2018-12-17T19:55:27.080Z,30.40
2018-12-17T19:57:54.512Z,31.87
2018-12-17T20:00:21.921Z,29.90
2018-12-17T20:02:49.500Z,34.20
2018-12-17T20:05:17.002Z,27.83
2018-12-17T20:07:44.441Z,29.77
2018-12-17T20:10:13.813Z,30.03
2018-12-17T20:12:41.436Z,33.53
2018-12-17T20:15:08.881Z,38.17
2018-12-17T20:17:36.289Z,32.97
2018-12-17T20:20:04.029Z,28.10
2018-12-17T20:22:31.446Z,29.93
2018-12-17T20:24:58.937Z,30.43
2018-12-17T20:27:26.393Z,29.10
2018-12-17T20:29:53.809Z,32.70
2018-12-17T20:32:21.234Z,39.97
2018-12-17T20:34:48.651Z,33.30
2018-12-17T20:37:16.130Z,29.40
2018-12-17T20:39:43.558Z,29.30
2018-12-17T20:42:10.971Z,23.70
2018-12-17T20:44:38.457Z,26.30
2018-12-17T20:47:05.873Z,25.43
2018-12-17T20:49:33.401Z,26.13
2018-12-17T20:52:00.905Z,27.53
2018-12-17T20:54:28.317Z,25.40
2018-12-17T20:56:55.753Z,29.70
2018-12-17T20:59:23.245Z,29.27
2018-12-17T21:01:51.028Z,24.00
2018-12-17T21:04:18.500Z,24.60
2018-12-17T21:06:49.855Z,26.13
2018-12-17T21:09:15.337Z,24.00
2018-12-17T21:11:42.753Z,26.43
2018-12-17T21:14:10.168Z,27.90
2018-12-17T21:16:37.577Z,24.10
2018-12-17T21:19:05.085Z,30.50
2018-12-17T21:21:32.497Z,29.83
2018-12-17T21:23:59.937Z,30.37
2018-12-17T21:26:27.350Z,27.47
2018-12-17T21:28:55.916Z,25.37
2018-12-17T21:31:23.521Z,29.93
2018-12-17T21:33:50.929Z,27.77
2018-12-17T21:36:18.422Z,24.00
2018-12-17T21:38:45.833Z,24.90
2018-12-17T21:41:13.358Z,25.33
2018-12-17T21:48:48.541Z,24.17
2018-12-17T21:51:15.980Z,28.40
2018-12-17T21:53:43.471Z,28.07
2018-12-17T21:56:10.976Z,28.00
2018-12-17T21:58:38.385Z,31.07
2018-12-17T22:01:05.806Z,29.43
2018-12-17T22:03:33.281Z,26.80
2018-12-17T22:06:00.707Z,37.97
2018-12-17T22:08:28.189Z,33.43
2018-12-17T22:10:55.611Z,33.63
2018-12-17T22:13:23.425Z,28.77
2018-12-17T22:15:50.913Z,31.00
2018-12-17T22:18:18.345Z,35.70
2018-12-17T22:20:45.862Z,27.87
2018-12-17T22:23:13.294Z,26.53
2018-12-17T22:25:40.702Z,29.00
2018-12-17T22:28:08.165Z,27.17
2018-12-17T22:30:35.666Z,26.07
2018-12-17T22:33:03.127Z,25.30
2018-12-17T22:35:30.618Z,28.03
2018-12-17T22:37:58.041Z,24.17
2018-12-17T22:40:25.549Z,25.70
2018-12-17T22:42:53.045Z,23.90
2018-12-17T22:45:20.461Z,24.37
2018-12-17T22:47:47.945Z,23.10
2018-12-17T22:50:15.389Z,21.67
2018-12-17T22:52:42.810Z,28.30
2018-12-17T22:55:10.250Z,25.17
2018-12-17T22:57:37.715Z,19.53
2018-12-17T23:00:06.684Z,23.20
2018-12-17T23:02:34.173Z,17.33
2018-12-17T23:05:01.631Z,21.97
2018-12-17T23:07:29.042Z,22.93
2018-12-17T23:10:02.221Z,18.17
2018-12-17T23:12:35.351Z,17.83
2018-12-17T23:15:08.498Z,20.57
2018-12-17T23:17:38.740Z,18.73
2018-12-17T23:20:07.189Z,22.10
2018-12-17T23:22:34.873Z,18.40
2018-12-17T23:25:02.437Z,19.07
2018-12-17T23:27:29.858Z,22.97
2018-12-17T23:29:57.268Z,19.30
2018-12-17T23:32:25.009Z,18.97
2018-12-17T23:34:52.447Z,19.50
2018-12-17T23:37:19.854Z,18.87
2018-12-17T23:39:47.730Z,20.80
2018-12-17T23:42:15.221Z,18.27
2018-12-17T23:44:42.768Z,17.67
2018-12-17T23:47:10.200Z,21.40
2018-12-17T23:49:37.717Z,19.77
2018-12-17T23:52:05.206Z,20.30
2018-12-17T23:54:32.654Z,20.43
2018-12-17T23:57:00.060Z,18.23
2018-12-17T23:59:27.537Z,20.53
